x

9444090 - Port Angeles, Wa (ptaw1) Weather Station

6:36 - Sun 26th Mar 2017 All times are PDT. -7 hours from GMT.

  • Wind
    5mph, 6mph gusts
  • Sea Temp 47°f
  • Luft Temp 41°f
  • Sea Pressure 1009.3mb
  • 9444090 - Port Angeles, Wa
  • 9444090 - Port Angeles, Wa

More Historic Weather Station data

Upgrade to MSW Pro to gain access to the past 30 days of data for over 8000 Wavebouys and Weather Stations around the globe.

Join Pro

Comparision Forecast

View Surf forecast
   
So 03/26 6:36 5 6 mph 1009.3mb 47f 41f
6:30 6
mph
1009.4mb 47f 41f
6:24 5 6 mph 1009.5mb 47f 41f
6:18 5 6 mph 1009.6mb 47f 41f
6:12 5 6 mph 1009.7mb 47f 41f
6:06 3 6 mph 1009.8mb 47f 41f
6:00 3 5 mph 1009.9mb 47f 41f
5:36 7 9 mph 1010.3mb 47f 41f
5:30 3 7 mph 1010.2mb 47f 41f
5:24 7 8 mph 1010.5mb 47f 41f
5:18 7 8 mph 1010.6mb 47f 41f
5:12 6 7 mph 1010.7mb 47f 41f
5:06 6 8 mph 1010.9mb 47f 41f
5:00 6 7 mph 1010.9mb 47f 41f
4:36 6 9 mph 1011.5mb 47f 42f
4:30 6 8 mph 1011.6mb 47f 42f
4:24 6 7 mph 1011.7mb 47f 42f
4:18 6 7 mph 1011.9mb 47f 42f
4:12 6 7 mph 1012mb 47f 41f
4:06 7 8 mph 1012mb 47f 41f
4:00 6 7 mph 1012.1mb 47f 41f
3:36 7 8 mph 1012.6mb 47f 41f
3:30 6 8 mph 1012.9mb 47f 41f
3:24 6 8 mph 1013mb 47f 41f
3:18 6 7 mph 1013.1mb 47f 41f
3:12 7 8 mph 1013.1mb 47f 41f
3:06 7 8 mph 1013.3mb 47f 41f
3:00 7 8 mph 1013.4mb 47f 41f
2:36 6 7 mph 1013.7mb 47f 41f
2:30 6 7 mph 1013.8mb 47f 41f
2:24 5 7 mph 1013.9mb 47f 41f
2:18 7
mph
1014.1mb 47f 41f
2:12 6 7 mph 1014.1mb 47f 41f
2:06 5 6 mph 1014.3mb 47f 41f
2:00 3
mph
1014.3mb 47f 41f
1:36 2 5 mph 1014.7mb 47f 41f
1:30 2 3 mph 1014.9mb 47f 42f
1:24 3
mph
1015mb 47f 41f
1:18 2 5 mph 1015.1mb 47f 41f
1:12 1 3 mph 1015.1mb 47f 41f
1:06 2 3 mph 1015.1mb 47f 41f
1:00 2 3 mph 1015mb 47f 41f
12:36 5 6 mph 1015.4mb 47f 42f
12:30 5 6 mph 1015.4mb 47f 42f
12:24 5 6 mph 1015.6mb 47f 42f
12:18 3 5 mph 1015.6mb 47f 42f
12:12 3 5 mph 1015.7mb 47f 42f
12:06 2 3 mph 1015.8mb 47f 41f
12:00 1 2 mph 1015.9mb 47f 42f
Sa 03/25 11:36 5 6 mph 1016mb 47f 42f
11:30 6 7 mph 1016mb 47f 43f
11:24 5 6 mph 1016.1mb 47f 42f
11:18 3 6 mph 1016.1mb 47f 42f
11:12 3 5 mph 1016.1mb 47f 42f
11:06 3 5 mph 1016.2mb 47f 43f
11:00 3
mph
1016.2mb 47f 43f
10:36 2
mph
1016.6mb 47f 44f
10:30 2 3 mph 1016.7mb 47f 44f
10:24 2 5 mph 1016.7mb 47f 44f
10:18 2
mph
1016.7mb 47f 44f
10:12 1 3 mph 1016.8mb 47f 44f
10:06 2 5 mph 1016.8mb 47f 44f
10:00 3 5 mph 1016.8mb 47f 44f
9:36 2 3 mph 1017mb 47f 44f
9:30 2 3 mph 1017.2mb 47f 44f
9:24 2 3 mph 1017.3mb 47f 44f
9:18 3 5 mph 1017.4mb 47f 44f
9:12 5 6 mph 1017.4mb 47f 44f
9:06 5 6 mph 1017.4mb 47f 44f
9:00 5 6 mph 1017.5mb 47f 43f
8:36 3 5 mph 1017.7mb 47f 44f
8:30 5 6 mph 1017.7mb 47f 44f
8:24 6
mph
1017.7mb 47f 44f
8:18 3 6 mph 1017.7mb 47f 44f
8:12 5 6 mph 1017.7mb 47f 44f
8:06 3 5 mph 1017.8mb 47f 44f
8:00 5 6 mph 1017.9mb 47f 44f
7:36 3 6 mph 1018.1mb 47f 44f
7:30 3 6 mph 1018.1mb 47f 44f
7:24 3 5 mph 1018.3mb 47f 44f
7:18 3 5 mph 1018.3mb 47f 44f
7:12 3 5 mph 1018.3mb 47f 44f
7:06 3 5 mph 1018.3mb 47f 44f
7:00 3 5 mph 1018.4mb 47f 44f
6:36 5 6 mph 1018.5mb 47f 44f
6:30 5 6 mph 1018.6mb 47f 44f
6:24 5 7 mph 1018.7mb 47f 44f
6:18 5 7 mph 1018.8mb 47f 44f
6:12 5 8 mph 1018.8mb 47f 44f
6:06 6 7 mph 1018.9mb 47f 44f
6:00 3 8 mph 1018.8mb 47f 44f
5:36 6 9 mph 1018.9mb 47f 44f
5:30 7 10 mph 1019mb 47f 44f
5:24 8 10 mph 1019.1mb 47f 44f
5:18 9 13 mph 1019.1mb 47f 44f
5:12 6 8 mph 1019.2mb 47f 45f
5:06 7 9 mph 1019.2mb 47f 45f
5:00 6 8 mph 1019.2mb 47f 46f
4:36  -  2 mph 1019.2mb 47f 46f
4:30  -  2 mph 1019.3mb 47f 46f
4:24 2
mph
1019.3mb 47f 45f
4:18 1 3 mph 1019.3mb 47f 45f
4:12 3 5 mph 1019.3mb 47f 45f
4:06 3 5 mph 1019.4mb 47f 46f
4:00 3 6 mph 1019.4mb 47f 45f
3:36 3 5 mph 1019.4mb 47f 46f
3:30 3 6 mph 1019.4mb 47f 46f
3:24 5 6 mph 1019.4mb 47f 46f
3:18 5 6 mph 1019.4mb 47f 46f
3:12 5 6 mph 1019.4mb 47f 45f
3:06 2 3 mph 1019.4mb 47f 45f
3:00 1 3 mph 1019.4mb 47f 46f
2:36 6 8 mph 1019.5mb 47f 45f
2:30 7 8 mph 1019.5mb 47f 46f
2:24 8 10 mph 1019.5mb 47f 46f
2:18 9 10 mph 1019.5mb 47f 46f
2:12 9 10 mph 1019.5mb 47f 46f
2:06 9 13 mph 1019.5mb 47f 46f
2:00 10 13 mph 1019.5mb 47f 46f
1:36 10 13 mph 1019.6mb 47f 46f
1:30 10 13 mph 1019.6mb 47f 46f
1:24 10 14 mph 1019.5mb 47f 46f
1:18 13 16 mph 1019.5mb 47f 46f
1:12 14 15 mph 1019.4mb 47f 45f
1:06 15 18 mph 1019.4mb 47f 46f
1:00 13 18 mph 1019.4mb 47f 45f
12:36 13 17 mph 1019.4mb 47f 46f
12:30 14 17 mph 1019.4mb 47f 46f
12:24 11 16 mph 1019.4mb 47f 46f
12:18 11 14 mph 1019.4mb 47f 46f
12:12 14 18 mph 1019.5mb 47f 46f
12:06 16 18 mph 1019.6mb 47f 46f
12:00 13 16 mph 1019.6mb 47f 46f
11:36 9 11 mph 1019.7mb 47f 45f
11:30 9 11 mph 1019.6mb 47f 45f
11:24 8 10 mph 1019.6mb 47f 45f
11:18 11 14 mph 1019.5mb 47f 45f
11:12 13 14 mph 1019.5mb 47f 45f
11:06 10 14 mph 1019.5mb 47f 45f
11:00 9 13 mph 1019.5mb 47f 45f
10:36 6 8 mph 1019.3mb 47f 45f
10:30 7 11 mph 1019.2mb 47f 45f
10:24 8 11 mph 1019.1mb 47f 45f
10:18 6 7 mph 1019.2mb 47f 45f
10:12 7 9 mph 1019.1mb 47f 45f
10:06 7 9 mph 1019.2mb 47f 45f
10:00 6 7 mph 1019.1mb 47f 45f
9:36 8 10 mph 1019mb 47f 45f
9:30 1 3 mph 1018.9mb 47f 47f
9:24 1 2 mph 1018.6mb 47f 46f
9:18 2 6 mph 1018.6mb 47f 45f
9:12 3 6 mph 1018.6mb 47f 45f
9:06 3 7 mph 1018.5mb 47f 45f
9:00 5 6 mph 1018.4mb 47f 44f
8:36 2 6 mph 1018.3mb 47f 45f
8:30 2 5 mph 1018.3mb 47f 45f
8:24 3 5 mph 1018.2mb 47f 45f
8:18 2 3 mph 1018.2mb 47f 44f
8:12 3 5 mph 1018.2mb 47f 44f
8:06 2
mph
1018.1mb 47f 44f
8:00  -  2 mph 1018mb 47f 44f
7:36 3 5 mph 1018.1mb 47f 43f
7:30 5 8 mph 1018mb 47f 43f
7:24 7 13 mph 1017.9mb 47f 44f
7:18 6 9 mph 1017.9mb 47f 44f
7:12 7 11 mph 1017.8mb 47f 43f
7:06 5 9 mph 1017.7mb 47f 42f
7:00 6 8 mph 1017.6mb 47f 43f
6:54 7 9 mph 1017.7mb 47f 42f
6:48 7 9 mph 1017.7mb 47f 42f
6:36 7 9 mph 1017.4mb 47f 42f
6:30 6 7 mph 1017.3mb 47f 42f
6:24 3 6 mph 1017.2mb 47f 42f
6:18 5 7 mph 1017.2mb 47f 42f
6:12 7 13 mph 1017.3mb 47f 42f
6:06 6 11 mph 1017.1mb 47f 42f
6:00 7 10 mph 1017.1mb 47f 42f
5:54 6 10 mph 1017.1mb 47f 42f
5:48 13 17 mph 1017.1mb 47f 43f
5:36 15 18 mph 1017mb 47f 44f
5:30 14 18 mph 1017mb 47f 44f
5:24 14 18 mph 1016.9mb 47f 44f
5:18 14 17 mph 1016.8mb 47f 44f
5:12 13 16 mph 1016.8mb 47f 44f
5:06 9 13 mph 1016.7mb 47f 43f
5:00 7 9 mph 1016.7mb 47f 44f
4:54 6 9 mph 1016.7mb 47f 43f
4:48 8 11 mph 1016.7mb 47f 44f
4:36 7 9 mph 1016.6mb 47f 44f
4:30 6 10 mph 1016.6mb 47f 44f
4:24 8 10 mph 1016.6mb 47f 44f
4:18 9 13 mph 1016.6mb 47f 44f
4:12 7 11 mph 1016.5mb 47f 44f
4:06 8 11 mph 1016.4mb 47f 44f
4:00 9 14 mph 1016.5mb 47f 44f
3:54 5 9 mph 1016.4mb 47f 44f
3:48 5 8 mph 1016.4mb 47f 44f
3:36 5 7 mph 1016.3mb 47f 44f
3:30 5 8 mph 1016.3mb 47f 44f
3:24 6 9 mph 1016.2mb 47f 44f
3:18 6 13 mph 1016.2mb 47f 44f
3:12 8 15 mph 1016.2mb 47f 44f
3:06 11 16 mph 1016.2mb 47f 44f
3:00 11 15 mph 1016.1mb 47f 44f
2:54 11 15 mph 1016.2mb 47f 44f
2:48 9 13 mph 1016.1mb 47f 44f
2:36 6 9 mph 1016mb 47f 44f
2:30 5 7 mph 1015.9mb 47f 44f
2:24 2 6 mph 1015.8mb 47f 44f
2:18 3 6 mph 1015.7mb 47f 44f
2:12 5 7 mph 1015.5mb 47f 44f
2:06 6 8 mph 1015.5mb 47f 44f
2:00 6 8 mph 1015.4mb 47f 44f
1:54 7 9 mph 1015.4mb 47f 44f
1:48 7 8 mph 1015.5mb 47f 44f
1:36 6 10 mph 1015.2mb 47f 43f
1:30 7 9 mph 1015.1mb 47f 43f
1:24 6 9 mph 1015.1mb 47f 43f
1:18 7 9 mph 1015mb 47f 43f
1:12 6 9 mph 1014.9mb 47f 43f
1:06 6 10 mph 1014.9mb 47f 43f
1:00 7 10 mph 1014.8mb 47f 43f
12:54 6 8 mph 1014.7mb 47f 43f
12:48 6 7 mph 1014.7mb 47f 43f
12:36 5 7 mph 1014.7mb 47f 43f
12:30 6 7 mph 1014.6mb 47f 43f
12:24 2 6 mph 1014.4mb 47f 42f
12:18 5 7 mph 1014.3mb 47f 43f
12:12 3
mph
1014.1mb 47f 43f
12:06 2 3 mph 1014mb 47f 43f
12:00 3 7 mph 1014mb 47f 43f
Fr 03/24 11:54 3 6 mph 1014mb 47f 43f
11:48 2 3 mph 1013.9mb 47f 43f
11:36 6 9 mph 1014mb 47f 43f
11:30 8 9 mph 1013.9mb 47f 43f
11:24 7 8 mph 1013.9mb 47f 42f
11:18 7 8 mph 1013.8mb 47f 42f
11:12 6 10 mph 1013.7mb 47f 43f
11:06 6 7 mph 1013.6mb 47f 43f
11:00 7 10 mph 1013.7mb 47f 43f
10:54 8 10 mph 1013.6mb 47f 43f
10:48 7 9 mph 1013.5mb 47f 42f
10:36 3 5 mph 1013.3mb 47f 43f
10:30 3 6 mph 1013.3mb 47f 43f
10:24 3 7 mph 1013.1mb 47f 43f
10:18 6 7 mph 1013mb 47f 43f
10:12 7 8 mph 1013mb 47f 43f
10:06 3 7 mph 1012.9mb 47f 43f
10:00 5 8 mph 1012.8mb 47f 44f
9:54 3 6 mph 1012.8mb 47f 44f
9:48 6 8 mph 1012.7mb 47f 44f
9:36  -  3 mph 1012.5mb 47f 44f
9:30 2 3 mph 1012.3mb 47f 44f
9:24 5 6 mph 1012.2mb 47f 44f
9:18 5 6 mph 1012.1mb 47f 45f
9:12 5
mph
1012.1mb 47f 45f
9:06 3 5 mph 1012.1mb 47f 45f
9:00 2 3 mph 1012mb 47f 45f
8:54 2 6 mph 1012.1mb 47f 46f
8:48 5 7 mph 1012mb 47f 46f
8:36 3 5 mph 1011.6mb 47f 46f
8:30 1 3 mph 1011.6mb 47f 46f
8:24 3 5 mph 1011.6mb 47f 46f
8:18 5 6 mph 1011.3mb 47f 47f
8:12 2 3 mph 1011.3mb 47f 47f
8:06 2 3 mph 1011.1mb 47f 47f
8:00 2 3 mph 1010.9mb 47f 47f
7:54 2 5 mph 1011mb 47f 47f
7:48 5
mph
1010.8mb 47f 47f
7:36 1 2 mph 1010.7mb 47f 47f
7:30 2 5 mph 1010.6mb 47f 47f
7:24 2 3 mph 1010.3mb 47f 47f
7:18  -  3 mph 1010.1mb 47f 47f
7:12 6 8 mph 1010.1mb 47f 47f
7:06 8 10 mph 1010.3mb 47f 47f
7:00 10 11 mph 1010.4mb 47f 47f
6:54 8 10 mph 1010.4mb 47f 47f
6:48 9 13 mph 1010.4mb 47f 47f
6:36 10 16 mph 1010.4mb 47f 47f
6:30 14 16 mph 1010.2mb 47f 47f
6:24 11 14 mph 1010mb 47f 47f
6:18 7 11 mph 1010mb 47f 47f
6:12 8 13 mph 1009.8mb 47f 47f
6:06 9 11 mph 1009.8mb 47f 47f
6:00 9 10 mph 1009.6mb 47f 47f
5:54 9 13 mph 1009.6mb 47f 48f
5:48 8 10 mph 1009.4mb 47f 47f
5:36 6 8 mph 1009.3mb 47f 48f
5:30 3 5 mph 1009.3mb 47f 48f
5:24 2 3 mph 1009.3mb 47f 48f
5:18 1 3 mph 1009.3mb 47f 48f
5:12 3 5 mph 1009.3mb 47f 48f
5:06 1 3 mph 1009.2mb 47f 49f
5:00 3 6 mph 1009.1mb 47f 48f
4:54 5 6 mph 1009.1mb 47f 48f
4:48 3 5 mph 1009.1mb 47f 48f
4:36 2 3 mph 1008.9mb 47f 48f
4:30 3 5 mph 1008.9mb 47f 48f
4:24 2 3 mph 1008.8mb 47f 48f
4:18 3 5 mph 1008.8mb 47f 48f
4:12 2 3 mph 1008.7mb 47f 49f
4:06  -  2 mph 1008.7mb 47f 49f
4:00 1 3 mph 1008.5mb 47f 49f
3:54 2 3 mph 1008.5mb 47f 48f
3:48 2 3 mph 1008.5mb 47f 48f
3:36 1 3 mph 1008.3mb 47f 48f
3:30 3 6 mph 1008.2mb 47f 48f
3:24 3 5 mph 1008.2mb 47f 48f
3:18 2 3 mph 1008.4mb 47f 48f
3:12 5 6 mph 1008.4mb 47f 48f
3:06 6
mph
1008.3mb 47f 48f
3:00 3 5 mph 1008.3mb 47f 48f
2:54 3 5 mph 1008.3mb 47f 48f
2:48 3 5 mph 1008.2mb 47f 49f
2:36 1 3 mph 1008mb 47f 49f
2:30 2 5 mph 1008mb 47f 48f
2:24 5
mph
1008mb 47f 48f
2:18 3 5 mph 1008mb 47f 48f
2:12 3 6 mph 1008mb 47f 49f
2:06 5 6 mph 1007.9mb 47f 49f
2:00 1 3 mph 1008mb 47f 49f
1:54 2 5 mph 1007.9mb 47f 49f
1:48 2 5 mph 1007.9mb 47f 50f
1:36 2 3 mph 1008mb 47f 52f
1:30 3 5 mph 1008mb 47f 52f
1:24 3
mph
1008mb 47f 55f
1:18 3 5 mph 1008mb 47f 53f
1:12 3 5 mph 1008mb 47f 51f
1:06 2 3 mph 1008mb 47f 52f
1:00 3
mph
1007.9mb 47f 52f
12:54 2 5 mph 1007.8mb 47f 51f
12:48 1 2 mph 1007.8mb 47f 50f
12:36 1 3 mph 1007.8mb 47f 49f
12:30 2 3 mph 1007.8mb 47f 50f
12:24 1 3 mph 1007.8mb 47f 48f
12:18 5 8 mph 1007.6mb 47f 47f
12:12 7 8 mph 1007.6mb 47f 47f
12:06 6 8 mph 1007.6mb 47f 48f
12:00 3 6 mph 1007.6mb 47f 48f
11:36 3 6 mph 1007.5mb 47f 47f
11:30 3 7 mph 1007.5mb 47f 47f
11:24 6 7 mph 1007.4mb 47f 47f
11:18 5 7 mph 1007.5mb 47f 47f
11:12 5 6 mph 1007.5mb 47f 47f
11:06 3
mph
1007.5mb 47f 47f
11:00 2 5 mph 1007.5mb 47f 47f
10:54 3 5 mph 1007.4mb 47f 47f
10:48 1 5 mph 1007.4mb 47f 47f
10:36 3 6 mph 1007.2mb 47f 47f
10:30 6 7 mph 1007.2mb 47f 48f
10:24 3 7 mph 1007.2mb 47f 47f
10:18 3 7 mph 1007.1mb 47f 47f
10:12 5 6 mph 1007.1mb 47f 46f
10:06 2 5 mph 1007mb 47f 47f
10:00 2 6 mph 1007mb 47f 47f
9:54 6 7 mph 1007.1mb 47f 48f
9:48 5 8 mph 1007mb 47f 48f
9:36 2 5 mph 1006.8mb 47f 46f
9:30 3 6 mph 1006.7mb 47f 46f
9:24 2 5 mph 1006.7mb 47f 46f
9:18 5 7 mph 1006.6mb 47f 46f
9:12 5 6 mph 1006.5mb 47f 46f
9:06 5 6 mph 1006.5mb 47f 46f
9:00 5 6 mph 1006.4mb 47f 46f
8:54  -  3 mph 1006.5mb 47f 47f
8:48 2 5 mph 1006.5mb 47f 45f
8:36 5 10 mph 1006.4mb 47f 44f
8:30 8 10 mph 1006.3mb 47f 43f
8:24 2 3 mph 1006.4mb 47f 42f
8:18  -  2 mph 1006.5mb 47f 41f
8:12  -  5 mph 1006.4mb 47f 40f
8:06 5 8 mph 1006.5mb 47f 40f
8:00 2 5 mph 1006.6mb 47f 40f
7:54 3 5 mph 1006.6mb 47f 40f
7:48 2 5 mph 1006.5mb 47f 40f
7:36 6
mph
1006.6mb 47f 40f
7:30 3 5 mph 1006.6mb 47f 41f
7:24 2 5 mph 1006.7mb 47f 42f
7:18 2 5 mph 1006.8mb 47f 41f
7:12 5
mph
1006.7mb 47f 41f
7:06 3 7 mph 1006.8mb 47f 42f
7:00 5 6 mph 1006.7mb 47f 44f
6:54 2 6 mph 1006.8mb 47f 41f
6:48 2 7 mph 1006.7mb 47f 42f
6:36 6
mph
1006.7mb 47f 40f
6:30 2 6 mph 1006.8mb 47f 41f
6:24 5 7 mph 1006.6mb 47f 41f
6:18 6 8 mph 1006.5mb 47f 41f
6:12 7 8 mph 1006.5mb 47f 41f
6:06 3 7 mph 1006.5mb 47f 41f
6:00 6 8 mph 1006.6mb 47f 41f
5:54 6 7 mph 1006.6mb 47f 41f
5:48 6 8 mph 1006.5mb 47f 41f
5:36 7 8 mph 1006.6mb 47f 41f
5:30 2 9 mph 1006.6mb 47f 41f
5:24 3 8 mph 1006.6mb 47f 40f
5:18 6 8 mph 1006.4mb 47f 40f
5:12 5 6 mph 1006.4mb 47f 40f
5:06 5 6 mph 1006.4mb 47f 41f
5:00 5 6 mph 1006.5mb 47f 41f
4:54 3 6 mph 1006.5mb 47f 41f
4:48 5 8 mph 1006.6mb 47f 41f
4:36 5 7 mph 1006.6mb 47f 41f
4:30 1 5 mph 1006.6mb 47f 42f
4:24 3 7 mph 1006.6mb 47f 42f
4:18 2 5 mph 1006.7mb 47f 43f
4:12 1 5 mph 1006.7mb 47f 42f
4:06 1 3 mph 1006.8mb 47f 43f
4:00 2 5 mph 1006.8mb 47f 43f
3:54 1 5 mph 1006.8mb 47f 44f
3:48 2 3 mph 1006.8mb 47f 44f
3:36 2 3 mph 1006.8mb 47f 45f
3:30 3 8 mph 1006.9mb 47f 45f
3:24 6 8 mph 1006.9mb 47f 46f
3:18 6 8 mph 1006.9mb 47f 45f
3:12 5 8 mph 1006.9mb 47f 45f
3:06 6 10 mph 1007mb 47f 46f
3:00 3 7 mph 1006.7mb 47f 45f
2:54 7 14 mph 1007.2mb 47f 44f
2:48 3 7 mph 1007mb 47f 43f
2:36 6 7 mph 1007.2mb 47f 43f
2:30 3 5 mph 1007.3mb 47f 43f
2:24 3 5 mph 1007.2mb 47f 44f
2:18  -  3 mph 1007.2mb 47f 43f
2:12 3 5 mph 1007.2mb 47f 43f
2:06 3 5 mph 1007.2mb 47f 44f
2:00 3 5 mph 1007.3mb 47f 44f
1:54 2 3 mph 1007.3mb 47f 44f
1:48 1 6 mph 1007.2mb 47f 45f
1:36 2 6 mph 1007.5mb 47f 44f
1:30 2 5 mph 1007.3mb 47f 46f
1:24 1 5 mph 1007.4mb 47f 45f
1:18 2 3 mph 1007.4mb 47f 45f
1:12 3
mph
1007.3mb 47f 45f
1:06 2 3 mph 1007.5mb 47f 45f
1:00 1 5 mph 1007.5mb 47f 45f
12:54 1 5 mph 1007.3mb 47f 45f
12:48 5 6 mph 1007.4mb 47f 45f
12:36 3 8 mph 1007.2mb 47f 46f
12:30 5 6 mph 1007.3mb 47f 45f
12:24  -  3 mph 1007.3mb 47f 45f
12:18  -  8 mph 1007.3mb 47f 45f
12:12 3 6 mph 1007.4mb 47f 45f
12:06 3 5 mph 1007.4mb 47f 46f
12:00 3 6 mph 1007.6mb 47f 46f
Do 03/23 11:54 3 6 mph 1007.6mb 47f 46f
11:48 2 5 mph 1007.4mb 47f 46f
11:36 3 5 mph 1007.7mb 47f 46f
11:30 1 6 mph 1007.6mb 47f 45f
11:24 1 7 mph 1007.7mb 47f 45f
11:18 3 6 mph 1007.9mb 47f 46f
11:12 2 5 mph 1007.7mb 47f 46f
11:06 2 3 mph 1007.8mb 47f 46f
11:00 2 3 mph 1007.9mb 47f 46f
10:54 2 3 mph 1007.9mb 47f 46f
10:48 2 5 mph 1007.9mb 47f 46f
10:36 3 6 mph 1008.3mb 47f 47f
10:30 5 6 mph 1008.3mb 47f 46f
10:24 3 5 mph 1008.5mb 47f 46f
10:18 2 7 mph 1008.4mb 47f 46f
10:12 5 6 mph 1008.5mb 47f 46f
10:06 6 7 mph 1008.6mb 47f 46f
10:00 2 3 mph 1008.4mb 47f 46f
9:54 2 3 mph 1008.6mb 47f 46f
9:48 3 5 mph 1008.7mb 47f 46f
9:36 3 5 mph 1008.5mb 47f 47f
9:30 2 6 mph 1008.5mb 47f 47f
9:24 5 7 mph 1008.6mb 47f 47f
9:18 2 5 mph 1008.8mb 47f 46f
9:12 5 6 mph 1009.1mb 47f 47f
9:06 3 5 mph 1008.7mb 47f 47f
9:00 1 3 mph 1009mb 47f 46f
8:54 6 8 mph 1009.1mb 47f 47f
8:48 6 7 mph 1008.9mb 47f 47f
8:36 2 6 mph 1008.9mb 47f 46f
8:30 3 6 mph 1009mb 47f 46f
8:24 2 3 mph 1009mb 47f 46f
8:18 3 6 mph 1009mb 47f 46f
8:12 1 3 mph 1009mb 47f 46f
8:06 6 8 mph 1009.1mb 47f 46f
8:00  -  6 mph 1009mb 47f 46f
7:54 5 6 mph 1009.3mb 47f 46f
7:48 3 5 mph 1009.2mb 47f 47f
7:36 2 6 mph 1009.5mb 47f 47f
7:30 1 6 mph 1009.5mb 47f 47f
7:24 3 5 mph 1009.8mb 47f 47f
7:18 3
mph
1009.7mb 47f 47f
7:12 1 3 mph 1009.7mb 47f 46f
7:06 1 2 mph 1009.8mb 47f 47f
7:00  -  2 mph 1009.8mb 47f 47f
6:54  -  3 mph 1010mb 47f 46f
6:48 1 3 mph 1010mb 47f 46f
6:36 2 3 mph 1010.1mb 47f 46f
6:30  -  2 mph 1010.2mb 47f 46f
6:24 1 6 mph 1010.4mb 47f 46f
6:18 6 7 mph 1010.5mb 47f 46f
6:12 3 8 mph 1010.7mb 47f 46f
6:06 5 8 mph 1010.6mb 47f 46f
6:00 7 9 mph 1010.7mb 47f 46f
5:54  -  6 mph 1011.1mb 47f 46f
5:48 6 8 mph 1011.1mb 47f 46f
5:36 7 8 mph 1011.3mb 47f 46f
5:30 6 7 mph 1011.4mb 47f 45f
5:24 5 9 mph 1011.5mb 47f 46f
5:18 6 8 mph 1011.4mb 47f 46f
5:12 6 9 mph 1011.5mb 47f 46f
5:06 5 8 mph 1011.8mb 47f 46f
5:00 6 8 mph 1011.7mb 47f 46f
4:54 7 8 mph 1011.9mb 47f 45f
4:48 6 7 mph 1011.9mb 47f 46f
4:36 6
mph
1012.1mb 47f 46f
4:30 6
mph
1012.2mb 47f 46f
4:24 5
mph
1012.1mb 47f 46f
4:18 2 3 mph 1012.3mb 47f 46f
4:12 2 3 mph 1012.5mb 47f 46f
4:06 3
mph
1012.7mb 47f 46f
4:00 2 3 mph 1012.8mb 47f 46f
3:36 3 5 mph 1013mb 47f 47f
3:30 2 5 mph 1013.2mb 47f 47f
3:24 3 5 mph 1013.1mb 47f 47f
3:18 2 5 mph 1013.1mb 47f 47f
3:12 3 6 mph 1013.1mb 47f 47f
3:06 5 6 mph 1013.3mb 47f 47f
3:00 2 3 mph 1013.4mb 47f 47f
2:54 2 5 mph 1013.6mb 47f 47f
2:48 3 5 mph 1013.6mb 47f 47f
2:36 2 3 mph 1013.8mb 47f 46f
2:30 2 5 mph 1013.9mb 47f 47f
2:24 5 6 mph 1013.9mb 47f 47f
2:18 3 5 mph 1014.1mb 47f 46f
2:12 3 5 mph 1014.3mb 47f 47f
2:06 2 5 mph 1014.4mb 47f 47f
2:00 3 6 mph 1014.4mb 47f 47f
1:54 2 5 mph 1014.6mb 47f 47f
1:48 2
mph
1014.7mb 47f 48f
1:36 1 5 mph 1014.7mb 47f 47f
1:30 3 5 mph 1014.8mb 47f 47f
1:24 3 6 mph 1014.9mb 47f 46f
1:18 3 5 mph 1015mb 47f 47f
1:12 2 5 mph 1015.1mb 47f 47f
1:06 1 5 mph 1015.1mb 47f 47f
1:00 2 3 mph 1015.2mb 47f 47f
12:54 3 5 mph 1015.3mb 47f 47f
12:48 3 5 mph 1015.3mb 47f 47f
12:36 3 6 mph 1015.6mb 47f 46f
12:30 3 5 mph 1015.6mb 47f 46f
12:24 3 5 mph 1015.5mb 47f 47f
12:18 2 3 mph 1015.6mb 47f 47f
12:12 3 5 mph 1015.7mb 47f 47f
12:06 2 3 mph 1015.8mb 47f 46f
12:00 3
mph
1015.8mb 47f 45f
11:54  -  2 mph 1015.9mb 47f 46f
11:48 2 3 mph 1015.9mb 47f 46f
11:36 3 6 mph 1016mb 47f 45f
11:30 5
mph
1016mb 47f 46f
11:24 5 6 mph 1016mb 47f 46f
11:18 5 6 mph 1015.9mb 47f 46f
11:12 5
mph
1016mb 47f 46f
11:06 5 6 mph 1016mb 47f 46f
11:00 3 6 mph 1016.1mb 47f 46f
10:54 6
mph
1016.1mb 47f 47f
10:48 5 6 mph 1016.2mb 47f 46f
10:36 2 5 mph 1016.2mb 47f 46f
10:30 3 6 mph 1016.2mb 47f 47f
10:24 2 5 mph 1016.2mb 47f 47f
10:18 2 3 mph 1016.2mb 47f 47f
10:12 2 3 mph 1016.2mb 47f 46f
10:06 2 3 mph 1016.3mb 47f 46f
10:00  -  2 mph 1016.2mb 47f 46f
9:54 2 3 mph 1016.2mb 47f 47f
9:48 2 3 mph 1016.3mb 47f 46f
9:36 3 5 mph 1016.4mb 47f 45f
9:30 2 3 mph 1016.4mb 47f 45f
9:24 1 2 mph 1016.5mb 47f 44f
9:18  -  2 mph 1016.6mb 47f 43f
9:12 1 3 mph 1016.6mb 47f 43f
9:06  -  1 mph 1016.6mb 47f 42f
9:00 2 5 mph 1016.7mb 47f 42f
8:54 3 5 mph 1016.7mb 47f 42f
8:48 2 6 mph 1016.7mb 47f 42f
8:36 2 5 mph 1016.8mb 47f 41f
8:30 2 6 mph 1016.9mb 47f 40f
8:24 3 6 mph 1016.8mb 47f 40f
8:18 3 6 mph 1016.8mb 47f 39f
8:12 2 3 mph 1016.9mb 47f 39f
8:06 2 5 mph 1016.9mb 47f 38f
8:00 5 6 mph 1017mb 47f 38f
7:54 2 3 mph 1016.8mb 47f 37f
7:48 2 7 mph 1016.7mb 47f 37f
7:36 5 7 mph 1016.8mb 47f 37f
7:30 1 5 mph 1016.8mb 47f 37f
7:24 5 6 mph 1016.8mb 47f 37f
7:18 6 8 mph 1016.8mb 47f 37f
7:12 7 9 mph 1016.8mb 47f 37f
7:06 7 9 mph 1016.7mb 47f 37f
7:00 7 8 mph 1016.7mb 47f 37f
6:54 8 9 mph 1016.7mb 47f 37f
6:48 7 8 mph 1016.9mb 47f 37f
6:36 8 10 mph 1016.9mb 47f 37f
6:30 6 9 mph 1017mb 47f 37f
6:24 9 10 mph 1017mb 47f 37f
6:18 7 9 mph 1016.9mb 47f 37f
6:12 6 8 mph 1016.9mb 47f 38f
6:06 6 8 mph 1016.9mb 47f 38f
6:00 8 9 mph 1016.9mb 47f 38f
5:54 7 8 mph 1016.8mb 47f 38f
5:48 7 8 mph 1016.8mb 47f 38f
5:36 7 10 mph 1016.8mb 47f 38f
5:30 7 9 mph 1016.8mb 47f 37f
5:24 6 9 mph 1016.8mb 47f 38f
5:18 8 9 mph 1016.8mb 47f 38f
5:12 7 9 mph 1016.8mb 47f 38f
5:06 8 10 mph 1016.8mb 47f 39f
5:00 7 9 mph 1016.8mb 47f 39f
4:54 7 10 mph 1016.7mb 47f 39f
4:48 9 10 mph 1016.7mb 47f 39f
4:36 8 10 mph 1016.7mb 47f 39f
4:30 8 11 mph 1016.6mb 47f 39f
4:24 8 10 mph 1016.6mb 47f 39f
4:18 7 9 mph 1016.6mb 47f 40f
4:12 7 13 mph 1016.6mb 47f 41f
4:06 6 8 mph 1016.6mb 47f 39f
4:00 6
mph
1016.6mb 47f 40f
3:54 3 8 mph 1016.5mb 47f 41f
3:48 6 8 mph 1016.6mb 47f 40f
3:36 6 9 mph 1016.6mb 47f 38f
3:30 7 10 mph 1016.6mb 47f 39f
3:24 7 10 mph 1016.7mb 47f 38f
3:18 8 10 mph 1016.6mb 47f 38f
3:12 8 10 mph 1016.5mb 47f 38f
3:06 7 8 mph 1016.5mb 47f 38f
3:00 5 7 mph 1016.5mb 47f 38f
2:54 5 6 mph 1016.6mb 47f 38f
2:48 5 9 mph 1016.7mb 47f 39f
2:36 7 9 mph 1016.5mb 47f 39f
2:30 5 8 mph 1016.5mb 47f 39f
2:24 7 9 mph 1016.5mb 47f 39f
2:18 8 10 mph 1016.5mb 47f 39f
2:12 7 8 mph 1016.4mb 47f 39f
2:06 7 8 mph 1016.6mb 47f 39f
2:00 8 9 mph 1016.6mb 47f 39f
1:54 6 9 mph 1016.6mb 47f 39f
1:48 6 8 mph 1016.6mb 47f 39f
1:36 2 9 mph 1016.6mb 47f 39f
1:30 7 10 mph 1016.8mb 47f 39f
1:24 5 8 mph 1016.7mb 47f 39f
1:18 6 8 mph 1016.8mb 47f 39f
1:12 6 8 mph 1017mb 47f 39f
1:06 6 8 mph 1017.1mb 47f 39f
1:00 1 9 mph 1017.1mb 47f 40f
12:54 8 10 mph 1017.2mb 47f 40f
12:48 7 9 mph 1017.3mb 47f 40f
12:36 3 6 mph 1017.2mb 47f 40f
12:30 2 5 mph 1017.2mb 47f 40f
12:24 2 3 mph 1017.2mb 47f 40f
12:18 1 2 mph 1017.2mb 47f 41f
12:12 3 5 mph 1017.2mb 47f 41f
12:06 1 2 mph 1017.1mb 47f 42f
12:00  -  3 mph 1017.1mb 47f 42f
Mi 03/22 11:54 5 7 mph 1017mb 47f 42f
11:48 3 5 mph 1017mb 47f 42f
11:36 1 8 mph 1016.8mb 47f 42f
11:30 7 9 mph 1016.8mb 47f 40f
11:24 3 5 mph 1016.7mb 47f 41f
11:18 2 3 mph 1016.6mb 47f 41f
11:12 1 2 mph 1016.5mb 47f 42f
11:06 3
mph
1016.5mb 47f 42f
11:00 3
mph
1016.5mb 47f 42f
10:54 2 3 mph 1016.5mb 47f 42f
10:48 3 6 mph 1016.4mb 47f 42f
10:36 7 10 mph 1016.3mb 47f 43f
10:30 7 8 mph 1016.3mb 47f 43f
10:24 7 9 mph 1016.3mb 47f 44f
10:18 5 8 mph 1016.3mb 47f 44f
10:12 6 8 mph 1016.3mb 47f 45f
10:06 7 9 mph 1016.3mb 47f 45f
10:00 6 8 mph 1016.2mb 47f 44f
9:54 6 8 mph 1016.2mb 47f 44f
9:48 7 10 mph 1016.2mb 47f 45f
9:36 9 14 mph 1016.1mb 47f 45f
9:30 9 15 mph 1016.1mb 47f 45f
9:24 8 14 mph 1015.9mb 47f 45f
9:18 6 13 mph 1015.8mb 47f 44f
9:12 6 8 mph 1015.8mb 47f 44f
9:06 5 7 mph 1015.8mb 47f 45f
9:00 6 9 mph 1015.7mb 47f 45f
8:54 3 7 mph 1015.5mb 47f 45f
8:48 1 5 mph 1015.3mb 47f 45f
8:36 5 10 mph 1015mb 47f 46f
8:30 6 11 mph 1014.8mb 47f 46f
8:24 10 14 mph 1014.6mb 47f 46f
8:18 10 18 mph 1014.5mb 47f 46f
8:12 14 20 mph 1014.3mb 47f 46f
8:06 14 18 mph 1014.1mb 47f 46f
8:00 16 21 mph 1014mb 47f 46f
7:54 17 23 mph 1013.9mb 47f 46f
7:48 17 23 mph 1013.7mb 47f 47f
7:36 20 24 mph 1013.2mb 47f 47f
7:30 18 24 mph 1013.1mb 47f 47f
7:24 20 26 mph 1013mb 47f 47f
7:18 18 25 mph 1012.9mb 47f 47f
7:12 21 26 mph 1012.8mb 47f 47f
7:06 22 29 mph 1012.6mb 47f 47f
7:00 21 26 mph 1012.4mb 47f 48f
6:36 20 24 mph 1012mb 47f 48f
6:30 20 24 mph 1011.9mb 47f 48f
6:24 17 24 mph 1011.8mb 47f 48f
6:18 18 28 mph 1011.7mb 47f 48f
6:12 20 29 mph 1011.6mb 47f 48f
6:06 20 25 mph 1011.5mb 47f 48f
6:00 18 23 mph 1011.5mb 47f 48f
5:54 17 24 mph 1011.5mb 47f 48f
5:48 20 26 mph 1011.5mb 47f 48f
5:36 18 29 mph 1011.6mb 47f 48f
5:30 18 25 mph 1011.5mb 47f 48f
5:24 13 16 mph 1011.5mb 47f 49f
5:18 13 21 mph 1011.5mb 47f 48f
5:12 17 21 mph 1011.4mb 47f 48f
5:06 15 22 mph 1011.4mb 47f 48f
5:00 17 23 mph 1011.2mb 47f 48f
4:54 17 24 mph 1011.1mb 47f 49f
4:48 17 23 mph 1011mb 47f 49f
4:36 17 22 mph 1010.7mb 47f 49f
4:30 16 18 mph 1010.6mb 47f 50f
4:24 14 16 mph 1010.5mb 47f 50f
4:18 11 13 mph 1010.3mb 47f 50f
4:12 10 14 mph 1010.2mb 47f 50f
4:06 9 13 mph 1010.2mb 47f 50f
4:00 10 14 mph 1010.2mb 47f 49f
3:54 14 22 mph 1010.1mb 47f 49f
3:48 15 23 mph 1010mb 47f 49f
3:36 13 17 mph 1009.7mb 47f 50f
3:30 13 18 mph 1009.5mb 47f 51f
3:24 14 17 mph 1009.2mb 47f 51f
3:18 10 15 mph 1009mb 47f 50f
3:12 11 14 mph 1008.9mb 47f 50f
3:06 9 13 mph 1008.8mb 47f 51f